Time;durP1;ratioP1;P1;durP2;ratioP2;P2;SDS_P1;SDS_P2;PMS_P1;PMS_P2;Temp;Humidity;BMP_temperature;BMP_pressure;BME280_temperature;BME280_humidity;BME280_pressure;Samples;Min_cycle;Max_cycle;Signal;HPM_P1;HPM_P2
2022/05/21 00:00:16;;;;;;;8.52;4.90;;;;;;;12.00;85.68;101784.38;4978464;28;20468;-72
2022/05/21 00:02:42;;;;;;;10.70;5.03;;;;;;;11.95;85.96;101778.75;4980325;28;20034;-72
2022/05/21 00:05:08;;;;;;;15.50;6.05;;;;;;;11.96;85.92;101774.38;5002893;28;20040;-72
2022/05/21 00:07:33;;;;;;;9.00;5.63;;;;;;;11.92;85.53;101778.22;4985161;28;20447;-71
2022/05/21 00:09:59;;;;;;;9.02;5.18;;;;;;;11.89;86.52;101779.31;4971716;28;20033;-72
2022/05/21 00:12:25;;;;;;;7.95;5.32;;;;;;;11.90;86.50;101773.16;5005156;28;22757;-72
2022/05/21 00:14:52;;;;;;;10.57;5.10;;;;;;;11.91;86.41;101772.22;4987643;28;20027;-71
2022/05/21 00:17:19;;;;;;;8.52;5.13;;;;;;;11.87;86.42;101773.44;4986959;28;20475;-73
2022/05/21 00:19:44;;;;;;;11.73;5.35;;;;;;;11.87;86.47;101779.44;5006648;28;20030;-72
2022/05/21 00:22:10;;;;;;;8.38;5.10;;;;;;;11.83;87.11;101774.69;5006068;28;20540;-71
2022/05/21 00:24:36;;;;;;;11.40;5.43;;;;;;;11.85;87.25;101776.16;4991318;28;20632;-72
2022/05/21 00:27:02;;;;;;;8.13;5.43;;;;;;;11.83;86.98;101764.28;5004902;28;20025;-71
2022/05/21 00:29:28;;;;;;;8.15;4.20;;;;;;;11.84;86.98;101766.72;4985165;28;20019;-71
2022/05/21 00:31:55;;;;;;;7.78;4.45;;;;;;;11.85;87.13;101765.78;4993976;28;20362;-72
2022/05/21 00:34:20;;;;;;;11.90;5.00;;;;;;;11.79;86.96;101771.53;5004251;28;20046;-72
2022/05/21 00:36:46;;;;;;;9.98;4.70;;;;;;;11.75;87.71;101772.75;5005878;28;20051;-71
2022/05/21 00:39:12;;;;;;;9.63;4.88;;;;;;;11.69;87.71;101778.50;4991966;28;20027;-69
2022/05/21 00:41:39;;;;;;;12.77;4.65;;;;;;;11.72;87.70;101774.84;4994060;28;20042;-69
2022/05/21 00:44:06;;;;;;;6.53;4.53;;;;;;;11.74;87.31;101770.31;5000792;28;20037;-70
2022/05/21 00:46:43;;;;;;;10.38;4.90;;;;;;;11.69;87.07;101770.72;5002349;28;20025;-70
2022/05/21 00:49:25;;;;;;;8.98;4.35;;;;;;;11.64;87.54;101772.91;4998647;28;20032;-70
2022/05/21 00:52:00;;;;;;;12.30;3.45;;;;;;;11.61;87.95;101775.81;4981634;28;20129;-70
2022/05/21 00:54:32;;;;;;;7.07;3.70;;;;;;;11.59;87.79;101775.94;5001698;28;20037;-70
2022/05/21 00:57:25;;;;;;;7.05;3.95;;;;;;;11.59;87.74;101775.13;4999516;28;20034;-70
2022/05/21 00:59:57;;;;;;;7.63;4.18;;;;;;;11.58;88.00;101771.69;4983715;28;20117;-70
2022/05/21 01:02:28;;;;;;;5.47;3.20;;;;;;;11.58;87.92;101766.50;4987241;28;20038;-69
2022/05/21 01:04:56;;;;;;;8.77;3.80;;;;;;;11.64;87.99;101768.56;5007124;28;20061;-72
2022/05/21 01:07:25;;;;;;;8.07;3.30;;;;;;;11.60;87.27;101775.00;4990351;28;20072;-72
2022/05/21 01:09:55;;;;;;;8.15;3.20;;;;;;;11.59;87.51;101778.53;5002238;28;20032;-70
2022/05/21 01:12:24;;;;;;;8.15;3.42;;;;;;;11.54;88.01;101770.31;4982919;28;20080;-70
2022/05/21 01:14:52;;;;;;;9.70;3.40;;;;;;;11.57;87.27;101777.03;4984928;28;20045;-69
2022/05/21 01:17:20;;;;;;;8.50;3.50;;;;;;;11.56;87.21;101771.00;4988261;28;20029;-69
2022/05/21 01:20:13;;;;;;;8.93;3.33;;;;;;;11.60;87.42;101768.94;5003997;28;20109;-69
2022/05/21 01:22:50;;;;;;;11.57;3.38;;;;;;;11.55;87.25;101771.16;5000778;28;20037;-71
2022/05/21 01:25:19;;;;;;;7.60;3.20;;;;;;;11.49;87.30;101778.53;4981028;28;20034;-72
2022/05/21 01:27:48;;;;;;;8.00;2.85;;;;;;;11.56;87.06;101771.00;4980383;28;20562;-72
2022/05/21 01:30:17;;;;;;;9.95;2.88;;;;;;;11.59;86.96;101767.34;4972288;28;20030;-72
2022/05/21 01:32:47;;;;;;;15.70;3.50;;;;;;;11.57;86.55;101769.25;4993635;28;20033;-71
2022/05/21 01:35:15;;;;;;;8.77;3.03;;;;;;;11.55;86.71;101766.78;5007086;28;20045;-71
2022/05/21 01:37:41;;;;;;;6.13;2.90;;;;;;;11.57;86.54;101772.66;5005242;28;20479;-71
2022/05/21 01:40:10;;;;;;;9.88;3.33;;;;;;;11.54;86.48;101779.91;5006435;28;20137;-72
2022/05/21 01:42:36;;;;;;;6.40;2.90;;;;;;;11.48;86.34;101766.50;5005708;28;20037;-72
2022/05/21 01:45:02;;;;;;;10.52;3.80;;;;;;;11.42;87.17;101763.66;4992405;28;20034;-71
2022/05/21 01:47:31;;;;;;;10.30;3.45;;;;;;;11.41;86.95;101755.03;5005701;28;20084;-71
2022/05/21 01:49:57;;;;;;;13.52;3.38;;;;;;;11.44;87.02;101764.34;5006737;28;20049;-71
2022/05/21 01:52:22;;;;;;;8.45;3.22;;;;;;;11.49;86.34;101756.97;4987802;28;20068;-72
2022/05/21 01:54:48;;;;;;;10.77;4.38;;;;;;;11.43;86.39;101757.50;5007700;28;20079;-72
2022/05/21 01:57:13;;;;;;;10.32;4.40;;;;;;;11.45;86.80;101761.59;5006049;28;20463;-72
2022/05/21 01:59:39;;;;;;;11.13;3.75;;;;;;;11.36;86.87;101761.59;4987692;28;20048;-72
2022/05/21 02:02:06;;;;;;;10.57;3.50;;;;;;;11.37;87.01;101769.25;4999913;28;20448;-72
2022/05/21 02:04:32;;;;;;;9.80;4.10;;;;;;;11.33;87.04;101757.50;5002821;28;20042;-72
2022/05/21 02:06:58;;;;;;;7.97;3.55;;;;;;;11.29;86.95;101762.16;5008054;28;20033;-72
2022/05/21 02:09:23;;;;;;;11.02;3.75;;;;;;;11.25;87.13;101754.78;5013882;28;20024;-71
2022/05/21 02:11:48;;;;;;;12.20;4.00;;;;;;;11.26;86.87;101744.25;4994931;28;20029;-71
2022/05/21 02:14:14;;;;;;;9.88;3.95;;;;;;;11.21;87.03;101759.44;5009014;28;20064;-71
2022/05/21 02:16:40;;;;;;;8.38;4.13;;;;;;;11.25;87.17;101765.16;5009215;28;20029;-71
2022/05/21 02:19:07;;;;;;;9.35;3.70;;;;;;;11.21;87.58;101763.81;5002905;28;20524;-71
2022/05/21 02:21:36;;;;;;;11.35;3.78;;;;;;;11.26;87.73;101761.59;5005982;28;20030;-71
2022/05/21 02:24:03;;;;;;;13.63;4.05;;;;;;;11.29;87.16;101767.34;5007239;28;20030;-72
2022/05/21 02:26:32;;;;;;;10.88;4.25;;;;;;;11.36;87.26;101767.63;4973016;28;20034;-71
2022/05/21 02:28:58;;;;;;;13.20;4.03;;;;;;;11.29;87.19;101767.34;5003052;28;20126;-72
2022/05/21 02:31:23;;;;;;;8.25;3.60;;;;;;;11.28;87.31;101767.47;5002786;28;20030;-71
2022/05/21 02:33:48;;;;;;;14.70;4.80;;;;;;;11.42;87.83;101771.44;4992041;28;20025;-71
2022/05/21 02:36:14;;;;;;;11.52;3.35;;;;;;;11.40;87.36;101768.19;5004965;28;20665;-72
2022/05/21 02:41:24;;;;;;;10.15;3.35;;;;;;;11.39;87.19;101764.72;5001060;28;20049;-72
2022/05/21 02:43:49;;;;;;;14.80;3.63;;;;;;;11.45;87.22;101766.81;5004302;28;20030;-72
2022/05/21 02:46:15;;;;;;;9.10;3.38;;;;;;;11.45;87.24;101766.81;5005171;28;20042;-72
2022/05/21 02:48:42;;;;;;;11.85;3.55;;;;;;;11.48;87.03;101766.50;5005004;28;20589;-72
2022/05/21 02:51:10;;;;;;;13.98;3.72;;;;;;;11.52;86.68;101761.84;4986189;28;20065;-72
2022/05/21 02:53:35;;;;;;;12.07;2.72;;;;;;;11.45;87.21;101769.41;4967555;28;20052;-71
2022/05/21 02:56:06;;;;;;;13.88;3.30;;;;;;;11.46;87.95;101775.41;5001754;28;20029;-72
2022/05/21 02:58:32;;;;;;;10.57;3.35;;;;;;;11.50;87.91;101767.19;4987317;28;20125;-71
2022/05/21 03:00:58;;;;;;;15.15;2.78;;;;;;;11.56;87.40;101768.41;4999976;28;20117;-71
2022/05/21 03:03:23;;;;;;;11.95;3.50;;;;;;;11.62;87.25;101772.22;5005174;28;20030;-71
2022/05/21 03:05:49;;;;;;;14.02;2.90;;;;;;;11.74;86.42;101770.31;5007302;28;20061;-72
2022/05/21 03:10:59;;;;;;;8.77;2.60;;;;;;;11.76;86.42;101784.78;5001756;28;20033;-71
2022/05/21 03:13:26;;;;;;;6.63;2.90;;;;;;;11.66;86.81;101782.22;4980838;28;20040;-72
2022/05/21 03:15:52;;;;;;;12.13;3.38;;;;;;;11.65;87.14;101790.16;4986583;28;20498;-72
2022/05/21 03:18:18;;;;;;;13.10;2.83;;;;;;;11.60;87.33;101790.56;4987617;28;20108;-72
2022/05/21 03:20:44;;;;;;;7.40;2.42;;;;;;;11.56;87.46;101790.97;5006500;28;20463;-71
2022/05/21 03:23:11;;;;;;;12.27;2.60;;;;;;;11.56;87.34;101794.38;4988601;28;20026;-71
2022/05/21 03:25:37;;;;;;;7.03;2.53;;;;;;;11.66;87.28;101795.22;5009429;28;20140;-72
2022/05/21 03:28:03;;;;;;;8.52;3.00;;;;;;;11.65;86.86;101787.56;5004107;28;20396;-71
2022/05/21 03:30:31;;;;;;;9.40;2.53;;;;;;;11.62;87.25;101800.81;4986823;28;20026;-71
2022/05/21 03:32:57;;;;;;;12.25;3.22;;;;;;;11.69;87.08;101801.91;5004043;28;20037;-72
2022/05/21 03:35:23;;;;;;;11.77;2.50;;;;;;;11.59;86.99;101793.31;4987832;28;20439;-72
2022/05/21 03:37:51;;;;;;;12.27;2.38;;;;;;;11.66;86.79;101795.22;5003270;28;20099;-71
2022/05/21 03:40:23;;;;;;;9.63;2.38;;;;;;;11.68;86.47;101788.09;4988710;28;20080;-71
2022/05/21 03:42:49;;;;;;;10.63;2.50;;;;;;;11.69;86.33;101796.69;4988431;28;20048;-72
2022/05/21 03:45:15;;;;;;;8.73;2.58;;;;;;;11.66;86.81;101790.00;5004209;28;20026;-71
2022/05/21 03:47:42;;;;;;;12.02;3.25;;;;;;;11.70;86.61;101790.56;4986849;28;20044;-72
2022/05/21 03:50:13;;;;;;;10.68;2.63;;;;;;;11.62;86.48;101799.06;5000490;28;20080;-72
2022/05/21 03:52:39;;;;;;;7.95;2.20;;;;;;;11.66;86.17;101789.19;4988419;28;20038;-71
2022/05/21 03:55:05;;;;;;;10.52;3.25;;;;;;;11.69;86.32;101794.09;5004048;28;20042;-72
2022/05/21 03:57:31;;;;;;;7.10;2.13;;;;;;;11.62;86.41;101780.03;4988784;28;20034;-72
2022/05/21 03:59:57;;;;;;;6.50;2.58;;;;;;;11.63;86.86;101786.88;5005494;28;20516;-72
2022/05/21 04:02:23;;;;;;;8.35;2.60;;;;;;;11.68;86.25;101780.31;5036579;22;20111;-70
2022/05/21 04:04:49;;;;;;;9.30;3.00;;;;;;;11.72;86.05;101790.44;5020194;28;20536;-70
2022/05/21 04:07:15;;;;;;;11.48;2.70;;;;;;;11.71;86.15;101793.97;5017406;28;20029;-70
2022/05/21 04:09:40;;;;;;;12.15;2.50;;;;;;;11.71;86.06;101791.38;5021670;28;20033;-70
2022/05/21 04:12:07;;;;;;;15.75;3.17;;;;;;;11.70;86.00;101787.97;5006331;28;20088;-70
2022/05/21 04:14:32;;;;;;;13.32;3.20;;;;;;;11.69;85.99;101794.91;5002468;28;20379;-70
2022/05/21 04:17:00;;;;;;;6.00;3.03;;;;;;;11.75;85.55;101803.94;5002464;28;20180;-70
2022/05/21 04:19:26;;;;;;;11.07;3.85;;;;;;;11.72;85.66;101801.63;5015149;28;20129;-70
2022/05/21 04:21:52;;;;;;;10.55;2.95;;;;;;;11.64;85.79;101798.88;5005606;28;20034;-70
2022/05/21 04:24:18;;;;;;;9.38;3.05;;;;;;;11.65;86.20;101818.72;5004211;28;20030;-70
2022/05/21 04:26:44;;;;;;;13.43;3.25;;;;;;;11.73;85.62;101811.03;5002469;28;20022;-70
2022/05/21 04:29:10;;;;;;;14.43;3.25;;;;;;;11.68;86.03;101810.66;5003465;28;20022;-70
2022/05/21 04:31:36;;;;;;;15.05;3.22;;;;;;;11.59;86.00;101814.91;5003593;28;20400;-70
2022/05/21 04:34:02;;;;;;;16.27;3.33;;;;;;;11.63;85.90;101816.25;5002615;28;20511;-71
2022/05/21 04:36:28;;;;;;;10.80;2.80;;;;;;;11.71;85.39;101814.75;5003284;28;20034;-70
2022/05/21 04:38:53;;;;;;;9.63;2.67;;;;;;;11.74;85.98;101827.47;5002831;28;20534;-70
2022/05/21 04:41:21;;;;;;;10.52;3.17;;;;;;;11.72;85.98;101827.59;5005726;28;20057;-70
2022/05/21 04:43:47;;;;;;;12.57;3.47;;;;;;;11.71;86.17;101825.16;5002929;28;20030;-70
2022/05/21 04:46:15;;;;;;;12.20;3.85;;;;;;;11.74;86.16;101836.09;5004472;28;20065;-70
2022/05/21 04:48:42;;;;;;;14.90;3.88;;;;;;;11.86;85.00;101821.97;5006503;28;20076;-70
2022/05/21 04:51:08;;;;;;;10.15;3.65;;;;;;;11.87;84.75;101835.81;5004218;28;20684;-70
2022/05/21 04:53:34;;;;;;;17.63;3.67;;;;;;;11.77;85.24;101833.22;5005069;28;20030;-70
2022/05/21 04:56:01;;;;;;;8.30;3.08;;;;;;;11.83;85.71;101837.84;5002418;28;20034;-70
2022/05/21 04:58:27;;;;;;;12.55;4.03;;;;;;;11.93;85.45;101837.06;5002329;28;20037;-70
2022/05/21 05:00:53;;;;;;;13.80;4.57;;;;;;;11.95;85.51;101837.72;5020035;28;20040;-70
2022/05/21 05:03:19;;;;;;;12.10;3.83;;;;;;;11.94;85.23;101843.88;4985743;28;20026;-70
2022/05/21 05:05:46;;;;;;;11.20;3.50;;;;;;;11.99;85.30;101852.91;5019146;28;20387;-70
2022/05/21 05:08:13;;;;;;;13.50;4.32;;;;;;;12.05;85.25;101848.91;5004488;28;20117;-70
2022/05/21 05:10:39;;;;;;;13.65;3.65;;;;;;;12.05;85.23;101846.31;5005871;28;20487;-70
2022/05/21 05:13:06;;;;;;;13.55;4.07;;;;;;;12.12;84.13;101852.59;5003118;28;20034;-70
2022/05/21 05:15:33;;;;;;;14.45;3.92;;;;;;;12.18;84.29;101849.44;5001599;28;20026;-70
2022/05/21 05:18:00;;;;;;;15.10;4.38;;;;;;;12.20;84.31;101860.50;4999826;28;20069;-70
2022/05/21 05:20:25;;;;;;;11.95;3.50;;;;;;;12.23;84.04;101854.22;5002542;28;20610;-70
2022/05/21 05:22:51;;;;;;;14.38;3.80;;;;;;;12.25;84.03;101850.50;5003369;28;20046;-70
2022/05/21 05:25:17;;;;;;;18.60;4.88;;;;;;;12.16;84.87;101847.94;5003454;28;20026;-70
2022/05/21 05:27:42;;;;;;;12.40;3.85;;;;;;;12.12;85.41;101850.00;5000605;28;20034;-70
2022/05/21 05:30:09;;;;;;;19.55;3.40;;;;;;;12.11;85.35;101850.97;5003836;28;20068;-70
2022/05/21 05:32:34;;;;;;;13.18;3.75;;;;;;;12.16;85.57;101847.94;5019699;28;20318;-70
2022/05/21 05:35:00;;;;;;;18.42;5.65;;;;;;;12.12;84.95;101851.78;5001399;28;20288;-70
2022/05/21 05:37:25;;;;;;;14.52;4.05;;;;;;;12.09;84.83;101850.28;5001206;28;20092;-70
2022/05/21 05:39:51;;;;;;;9.90;4.00;;;;;;;12.16;85.13;101855.75;5001585;28;20026;-70
2022/05/21 05:42:17;;;;;;;11.63;3.63;;;;;;;12.32;84.69;101848.19;5000243;28;20415;-70
2022/05/21 05:44:43;;;;;;;20.42;4.32;;;;;;;12.29;84.97;101852.84;5001868;28;20033;-70
2022/05/21 05:47:08;;;;;;;11.50;4.28;;;;;;;12.26;84.12;101861.72;4999719;28;20103;-70
2022/05/21 05:49:34;;;;;;;13.43;4.78;;;;;;;12.26;84.38;101854.75;4999945;28;20106;-70
2022/05/21 05:51:59;;;;;;;19.38;5.30;;;;;;;12.29;84.86;101864.06;5001491;28;20042;-70
2022/05/21 05:54:25;;;;;;;12.18;4.43;;;;;;;12.26;84.37;101864.31;5002124;28;20500;-70
2022/05/21 05:56:52;;;;;;;14.30;4.20;;;;;;;12.27;84.28;101869.41;5011393;28;20029;-70
2022/05/21 06:04:46;;;;;;;13.10;4.75;;;;;;;12.34;84.29;101869.66;5000272;28;20633;-70
2022/05/21 06:07:13;;;;;;;18.83;4.18;;;;;;;12.42;84.09;101868.94;5017608;28;20034;-70
2022/05/21 06:09:38;;;;;;;13.57;4.65;;;;;;;12.33;84.46;101868.00;5004116;28;20522;-71
2022/05/21 06:12:04;;;;;;;14.98;4.85;;;;;;;12.36;84.17;101865.13;5002249;28;20037;-70
2022/05/21 06:14:29;;;;;;;17.63;4.88;;;;;;;12.38;84.42;101868.41;4999847;28;20521;-70
2022/05/21 06:16:55;;;;;;;20.27;4.85;;;;;;;12.37;84.58;101866.75;5001795;28;20050;-70
2022/05/21 06:19:20;;;;;;;17.27;5.63;;;;;;;12.50;83.54;101869.06;5004158;28;20060;-70
2022/05/21 06:21:46;;;;;;;15.20;5.28;;;;;;;12.54;83.24;101861.78;5022634;28;20038;-70
2022/05/21 06:24:11;;;;;;;17.00;5.03;;;;;;;12.50;83.59;101865.63;5022693;28;20080;-70
2022/05/21 06:26:37;;;;;;;12.85;4.60;;;;;;;12.60;83.45;101869.84;5004128;28;20025;-70
2022/05/21 06:29:02;;;;;;;23.80;6.63;;;;;;;12.61;82.95;101866.28;5019902;28;20041;-70
2022/05/21 06:31:28;;;;;;;14.38;5.35;;;;;;;12.57;83.00;101874.50;5004797;28;20022;-70
2022/05/21 06:33:53;;;;;;;20.27;5.57;;;;;;;12.63;83.77;101873.94;5006686;28;20034;-70
2022/05/21 06:36:19;;;;;;;11.00;4.90;;;;;;;12.68;83.60;101869.13;5006504;28;20038;-70
2022/05/21 06:38:45;;;;;;;20.08;5.60;;;;;;;12.86;82.98;101876.97;5012600;28;20026;-70
2022/05/21 06:41:11;;;;;;;14.85;5.00;;;;;;;12.92;82.91;101867.78;5007722;28;20029;-70
2022/05/21 06:43:37;;;;;;;20.95;5.47;;;;;;;12.89;83.11;101865.47;5018420;28;20511;-70
2022/05/21 06:46:03;;;;;;;23.00;6.32;;;;;;;13.02;83.04;101871.16;5007572;28;20032;-70
2022/05/21 06:48:29;;;;;;;16.52;5.55;;;;;;;13.03;82.94;101873.63;5005484;28;20474;-70
2022/05/21 06:50:57;;;;;;;15.68;5.50;;;;;;;13.19;82.09;101872.16;5005337;28;20022;-71
2022/05/21 06:53:22;;;;;;;19.25;5.55;;;;;;;13.12;82.57;101884.09;5006979;28;20030;-70
2022/05/21 06:55:50;;;;;;;15.20;6.07;;;;;;;13.17;81.59;101885.31;5006321;28;20029;-70
2022/05/21 06:58:15;;;;;;;22.88;6.30;;;;;;;13.10;81.84;101886.03;5007124;28;20443;-70
2022/05/21 07:00:42;;;;;;;15.18;6.32;;;;;;;13.18;81.08;101881.72;5020369;28;20034;-70
2022/05/21 07:03:07;;;;;;;14.02;7.07;;;;;;;13.18;81.37;101886.13;5020294;28;20345;-70
2022/05/21 07:08:24;;;;;;;19.42;6.22;;;;;;;13.23;81.17;101882.09;5018669;28;20033;-70
2022/05/21 07:10:49;;;;;;;21.33;6.53;;;;;;;13.34;81.36;101896.75;5007903;28;20341;-70
2022/05/21 07:13:16;;;;;;;20.17;6.53;;;;;;;13.41;81.26;101889.97;5008005;28;20048;-70
2022/05/21 07:15:42;;;;;;;21.98;7.13;;;;;;;13.37;80.43;101896.47;5019344;28;20029;-70
2022/05/21 07:18:09;;;;;;;19.42;7.75;;;;;;;13.39;80.18;101896.28;5004563;28;20025;-70
2022/05/21 07:20:34;;;;;;;17.88;6.25;;;;;;;13.41;79.82;101902.16;5008128;28;20034;-70
2022/05/21 07:23:00;;;;;;;18.35;6.88;;;;;;;13.31;81.00;101897.03;5002332;28;20041;-70
2022/05/21 07:25:30;;;;;;;17.77;6.95;;;;;;;13.40;81.00;101897.94;5004039;28;20422;-70
2022/05/21 07:27:56;;;;;;;17.42;6.38;;;;;;;13.37;80.95;101898.22;5001152;28;20041;-70
2022/05/21 07:30:22;;;;;;;15.50;6.50;;;;;;;13.41;81.32;101903.00;5003851;28;20514;-70
2022/05/21 07:32:50;;;;;;;22.80;6.70;;;;;;;13.44;81.04;101902.69;5001111;28;20372;-70
2022/05/21 07:35:18;;;;;;;20.45;7.28;;;;;;;13.51;80.18;101915.16;5003614;28;20034;-70
2022/05/21 07:37:44;;;;;;;18.48;6.53;;;;;;;13.53;79.62;101901.00;5017256;28;20022;-70
2022/05/21 07:40:11;;;;;;;18.33;6.28;;;;;;;13.58;80.00;101913.56;5004303;28;20492;-70
2022/05/21 07:42:37;;;;;;;17.85;5.95;;;;;;;13.60;79.84;101914.25;5017968;28;20030;-70
2022/05/21 07:45:04;;;;;;;16.35;6.50;;;;;;;13.82;80.25;101924.25;5005132;28;20042;-70
2022/05/21 07:47:30;;;;;;;19.33;6.00;;;;;;;13.86;80.71;101929.13;5004756;28;20057;-70
2022/05/21 07:49:56;;;;;;;19.52;6.65;;;;;;;13.78;79.45;101920.28;5000127;28;20044;-70
2022/05/21 07:52:29;;;;;;;20.75;6.22;;;;;;;13.80;79.90;101923.53;5018289;28;20105;-70
2022/05/21 07:54:55;;;;;;;26.80;6.32;;;;;;;13.83;78.91;101931.06;5005595;28;20275;-70
2022/05/21 07:57:20;;;;;;;17.77;5.68;;;;;;;13.93;78.81;101928.38;5003499;28;20076;-70
2022/05/21 07:59:46;;;;;;;14.25;5.95;;;;;;;13.93;77.71;101919.75;5003533;28;20124;-70
2022/05/21 08:02:15;;;;;;;18.17;5.90;;;;;;;14.07;77.65;101923.59;5003126;28;20057;-71
2022/05/21 08:04:40;;;;;;;19.65;5.38;;;;;;;14.20;76.89;101927.47;5006323;28;20048;-70
2022/05/21 08:07:06;;;;;;;21.80;5.88;;;;;;;14.34;75.87;101927.88;5001947;28;20042;-70
2022/05/21 08:09:32;;;;;;;22.60;7.35;;;;;;;14.49;74.62;101928.13;5007874;28;20037;-70
2022/05/21 08:11:57;;;;;;;16.95;5.97;;;;;;;14.64;75.49;101925.81;5003867;28;20083;-70
2022/05/21 08:14:23;;;;;;;16.77;6.57;;;;;;;14.86;73.68;101935.69;5006827;28;20025;-70
2022/05/21 08:16:49;;;;;;;14.25;5.40;;;;;;;14.94;73.68;101933.13;5009883;28;20056;-70
2022/05/21 08:19:16;;;;;;;23.02;7.60;;;;;;;14.84;73.04;101929.78;5019106;28;20120;-71
2022/05/21 08:21:42;;;;;;;13.65;6.32;;;;;;;14.93;72.97;101934.06;5007451;28;20030;-70
2022/05/21 08:26:57;;;;;;;17.55;5.43;;;;;;;15.10;72.55;101940.19;4993254;28;20115;-70
2022/05/21 08:29:29;;;;;;;23.25;6.78;;;;;;;15.15;71.93;101947.56;5018455;28;20033;-70
2022/05/21 08:31:55;;;;;;;18.63;5.90;;;;;;;15.01;72.13;101943.72;5003827;28;20030;-70
2022/05/21 08:34:22;;;;;;;11.93;4.50;;;;;;;15.35;71.05;101938.47;5002229;28;20467;-70
2022/05/21 08:36:48;;;;;;;17.15;4.95;;;;;;;15.86;69.51;101933.19;5004480;28;20044;-70
2022/05/21 08:39:15;;;;;;;14.80;5.05;;;;;;;16.06;68.25;101940.69;5013304;28;20038;-70
2022/05/21 08:41:54;;;;;;;21.52;5.40;;;;;;;16.13;67.16;101945.09;4985453;28;20115;-70
2022/05/21 08:44:45;;;;;;;22.08;5.80;;;;;;;16.38;65.22;101931.97;5000242;28;20352;-70
2022/05/21 08:47:16;;;;;;;14.30;5.55;;;;;;;16.33;66.10;101942.13;5010487;28;20061;-70
2022/05/21 08:49:52;;;;;;;18.95;4.35;;;;;;;16.34;66.30;101934.09;5003935;28;20036;-70
2022/05/21 08:52:18;;;;;;;16.98;4.60;;;;;;;16.17;66.41;101940.34;4994136;28;20399;-70
2022/05/21 08:54:47;;;;;;;18.52;4.80;;;;;;;15.73;67.57;101933.66;5005606;28;20095;-70
2022/05/21 08:57:38;;;;;;;13.95;3.97;;;;;;;16.33;66.01;101937.72;5000681;28;20029;-70
2022/05/21 09:00:09;;;;;;;13.23;4.07;;;;;;;17.26;64.60;101938.06;4996272;28;20065;-70
2022/05/21 09:02:36;;;;;;;20.67;4.63;;;;;;;17.57;62.68;101938.00;5003313;28;20033;-70
2022/05/21 09:05:07;;;;;;;12.15;4.22;;;;;;;17.19;63.49;101935.31;4984656;28;20041;-70
2022/05/21 09:08:30;;;;;;;13.20;4.10;;;;;;;16.60;65.14;101943.53;4997807;28;20518;-70
2022/05/21 09:11:01;;;;;;;14.88;4.53;;;;;;;16.47;66.81;101951.91;4937037;28;20551;-70
2022/05/21 09:13:41;;;;;;;16.10;4.15;;;;;;;16.34;67.64;101946.38;4939054;28;20181;-70
2022/05/21 09:18:55;;;;;;;14.73;4.28;;;;;;;16.55;66.98;101948.47;5002704;28;20040;-70
2022/05/21 09:21:24;;;;;;;14.13;4.30;;;;;;;16.60;66.46;101942.72;4998686;28;20034;-70
2022/05/21 09:23:58;;;;;;;15.20;4.38;;;;;;;16.40;65.47;101944.91;5018975;28;20380;-70
2022/05/21 09:26:30;;;;;;;14.18;3.97;;;;;;;16.29;66.24;101943.44;5002670;28;20534;-70
2022/05/21 09:29:14;;;;;;;15.23;5.67;;;;;;;16.33;65.96;101944.72;5000431;28;20042;-70
2022/05/21 09:31:40;;;;;;;17.80;4.50;;;;;;;16.47;66.50;101944.06;5020538;28;20037;-70
2022/05/21 09:34:27;;;;;;;10.65;4.53;;;;;;;16.88;66.42;101930.88;5018704;28;20056;-71
2022/05/21 09:36:53;;;;;;;16.80;4.50;;;;;;;17.26;65.74;101938.06;5003709;28;20487;-70
2022/05/21 09:39:41;;;;;;;18.77;4.43;;;;;;;17.79;63.39;101933.75;4999517;28;20021;-70
2022/05/21 09:42:12;;;;;;;12.48;3.78;;;;;;;17.41;62.84;101938.16;4996245;28;20417;-70
2022/05/21 09:47:29;;;;;;;16.30;3.88;;;;;;;17.29;63.29;101935.06;4996454;28;20037;-70
2022/05/21 09:50:05;;;;;;;15.07;4.13;;;;;;;17.47;64.62;101946.13;5003323;28;20021;-70
2022/05/21 09:52:32;;;;;;;10.68;4.10;;;;;;;17.39;63.50;101943.56;5006162;28;20038;-70
2022/05/21 09:54:58;;;;;;;20.58;5.78;;;;;;;17.29;64.64;101942.94;5007436;28;20458;-70
2022/05/21 09:57:26;;;;;;;12.10;4.28;;;;;;;17.33;64.43;101944.25;5003679;28;20034;-70
2022/05/21 10:00:04;;;;;;;11.57;4.13;;;;;;;17.96;62.78;101931.84;5021719;28;20061;-70
2022/05/21 10:03:20;;;;;;;12.93;4.38;;;;;;;18.20;60.95;101924.75;5002953;28;20046;-70
2022/05/21 10:05:51;;;;;;;14.02;4.30;;;;;;;18.07;61.74;101928.00;5018823;28;20085;-70
2022/05/21 10:11:22;;;;;;;10.40;3.53;;;;;;;17.63;60.39;101923.38;5004066;28;20037;-70
2022/05/21 10:13:54;;;;;;;18.33;4.63;;;;;;;17.46;60.53;101933.16;5002362;28;20105;-70
2022/05/21 10:16:29;;;;;;;17.37;3.80;;;;;;;17.27;61.22;101932.66;5008462;28;20680;-70
2022/05/21 10:19:10;;;;;;;11.02;3.30;;;;;;;17.22;61.97;101929.72;5002783;28;20026;-70
2022/05/21 10:22:09;;;;;;;18.20;4.05;;;;;;;17.38;62.96;101933.22;4986346;28;20045;-70
2022/05/21 10:24:46;;;;;;;9.80;3.88;;;;;;;18.12;60.41;101924.81;5005387;28;20435;-70
2022/05/21 10:27:17;;;;;;;16.15;4.43;;;;;;;18.57;61.02;101920.41;5005230;28;20086;-70
2022/05/21 10:30:03;;;;;;;13.73;4.55;;;;;;;18.90;58.74;101920.88;5004474;28;20038;-71
2022/05/21 10:32:35;;;;;;;14.10;3.65;;;;;;;19.25;57.70;101916.63;5020813;28;21279;-70
2022/05/21 10:35:26;;;;;;;16.63;3.97;;;;;;;19.55;54.62;101916.50;5007381;28;20397;-70
2022/05/21 10:38:33;;;;;;;17.02;3.45;;;;;;;19.40;56.42;101921.81;5005538;28;20029;-70
2022/05/21 10:41:06;;;;;;;12.60;3.65;;;;;;;19.03;56.63;101933.34;4964015;28;20041;-70
2022/05/21 10:43:59;;;;;;;14.90;3.97;;;;;;;19.21;54.18;101922.41;5004400;28;20422;-70
2022/05/21 10:46:56;;;;;;;11.20;2.97;;;;;;;19.74;55.35;101924.78;5004739;28;20469;-69
2022/05/21 10:49:45;;;;;;;12.45;3.75;;;;;;;19.89;51.36;101907.09;5004795;28;20037;-70
2022/05/21 10:52:34;;;;;;;15.27;3.97;;;;;;;19.85;53.36;101913.72;5006823;28;20041;-70
2022/05/21 10:55:12;;;;;;;11.05;3.60;;;;;;;19.74;53.46;101904.56;5001149;28;20981;-70
2022/05/21 10:57:57;;;;;;;12.25;3.95;;;;;;;19.71;53.59;101910.16;5003337;28;20499;-70
2022/05/21 11:00:46;;;;;;;14.75;3.58;;;;;;;19.31;52.14;101908.97;5002084;28;20038;-72
2022/05/21 11:03:33;;;;;;;12.50;3.30;;;;;;;19.37;51.94;101905.59;5004573;28;20041;-70
2022/05/21 11:06:13;;;;;;;9.15;2.92;;;;;;;19.34;51.29;101908.59;5004086;28;20282;-70
2022/05/21 11:08:45;;;;;;;10.15;3.60;;;;;;;19.43;53.03;101908.28;5022231;28;20033;-70
2022/05/21 11:11:37;;;;;;;;;;;;;;;19.35;53.15;101916.31;5008266;28;20495;-70
2022/05/21 11:14:24;;;;;;;10.55;2.97;;;;;;;19.24;53.19;101907.09;5018771;28;19921;-70
2022/05/21 11:17:05;;;;;;;9.57;3.00;;;;;;;19.08;53.89;101912.59;5017253;28;20025;-70
2022/05/21 11:19:43;;;;;;;10.13;2.70;;;;;;;19.25;53.05;101911.34;5002873;28;20034;-70
2022/05/21 11:22:16;;;;;;;9.57;3.05;;;;;;;18.99;54.09;101911.06;5001047;28;20073;-70
2022/05/21 11:24:57;;;;;;;10.88;2.47;;;;;;;18.99;54.69;101919.75;5002980;28;20400;-70
2022/05/21 11:27:36;;;;;;;9.02;3.20;;;;;;;18.93;55.18;101922.31;5000778;28;20148;-70
2022/05/21 11:30:14;;;;;;;10.52;3.20;;;;;;;19.08;53.96;101923.09;5003564;28;20041;-70
2022/05/21 11:38:28;;;;;;;7.90;3.08;;;;;;;19.05;54.61;101911.13;5006257;28;20507;-70
2022/05/21 11:44:55;;;;;;;11.30;3.17;;;;;;;19.31;54.03;101919.47;5002904;28;20045;-70
2022/05/21 11:46:47;;;;;;;11.70;3.15;;;;;;;20.01;52.26;101917.91;5005823;28;20431;-70
2022/05/21 11:49:54;;;;;;;11.73;2.92;;;;;;;20.32;51.82;101906.94;5019465;28;20038;-70
2022/05/21 11:52:31;;;;;;;11.50;3.17;;;;;;;20.45;49.72;101906.22;5001579;28;20022;-70
2022/05/21 11:54:56;;;;;;;12.65;3.50;;;;;;;20.25;51.17;101914.03;5004172;28;20495;-70
2022/05/21 11:57:42;;;;;;;10.13;3.47;;;;;;;20.38;50.60;101911.47;5005232;28;20117;-70
2022/05/21 12:00:24;;;;;;;8.63;2.85;;;;;;;20.41;50.43;101902.34;5003704;28;20487;-70
2022/05/21 12:02:58;;;;;;;11.95;3.13;;;;;;;20.35;49.47;101895.25;5019918;28;20037;-70
2022/05/21 12:05:33;;;;;;;13.05;4.20;;;;;;;20.36;50.07;101907.38;5026848;28;20372;-70